createdAt,value
2024-02-15T00:03:37.329Z,7.10
2024-02-15T00:08:39.949Z,9.02
2024-02-15T00:13:42.169Z,8.95
2024-02-15T00:18:46.393Z,6.40
2024-02-15T00:23:50.590Z,4.10
2024-02-15T00:28:52.648Z,3.58
2024-02-15T00:33:57.025Z,3.50
2024-02-15T00:39:02.302Z,3.45
2024-02-15T00:44:05.290Z,4.40
2024-02-15T00:49:07.733Z,6.38
2024-02-15T00:54:10.896Z,6.07
2024-02-15T00:59:14.271Z,3.30
2024-02-15T01:04:16.633Z,3.05
2024-02-15T01:09:19.708Z,2.80
2024-02-15T01:14:22.777Z,2.28
2024-02-15T01:19:24.692Z,1.70
2024-02-15T01:24:26.598Z,2.00
2024-02-15T01:29:28.901Z,2.33
2024-02-15T01:34:31.006Z,2.10
2024-02-15T01:39:33.212Z,2.78
2024-02-15T01:44:38.347Z,2.28
2024-02-15T01:49:42.826Z,2.53
2024-02-15T01:54:47.027Z,2.28
2024-02-15T01:59:51.123Z,2.80
2024-02-15T02:04:53.115Z,2.00
2024-02-15T02:09:55.385Z,1.98
2024-02-15T02:14:57.772Z,2.35
2024-02-15T02:19:59.694Z,2.70
2024-02-15T02:25:12.102Z,3.45
2024-02-15T02:30:20.333Z,2.85
2024-02-15T02:35:22.876Z,3.00
2024-02-15T02:40:24.973Z,2.97
2024-02-15T02:45:27.287Z,2.33
2024-02-15T02:50:29.683Z,2.10
2024-02-15T02:55:32.764Z,1.63
2024-02-15T03:00:35.101Z,1.98
2024-02-15T03:05:36.972Z,3.35
2024-02-15T03:10:39.442Z,3.15
2024-02-15T03:15:42.913Z,4.75
2024-02-15T03:20:46.684Z,1.70
2024-02-15T03:25:51.268Z,1.85
2024-02-15T03:30:54.068Z,2.40
2024-02-15T03:36:01.066Z,2.08
2024-02-15T03:41:03.787Z,1.63
2024-02-15T03:46:06.069Z,1.50
2024-02-15T03:51:08.521Z,2.00
2024-02-15T03:56:10.370Z,1.60
2024-02-15T04:01:14.854Z,2.70
2024-02-15T04:06:17.646Z,3.17
2024-02-15T04:11:20.999Z,3.20
2024-02-15T04:16:24.084Z,3.15
2024-02-15T04:21:26.149Z,2.30
2024-02-15T04:26:28.380Z,2.70
2024-02-15T04:31:30.572Z,1.88
2024-02-15T04:36:35.224Z,1.63
2024-02-15T04:41:37.290Z,2.70
2024-02-15T04:46:40.104Z,3.38
2024-02-15T04:51:42.794Z,4.75
2024-02-15T04:56:45.382Z,5.13
2024-02-15T05:01:47.143Z,3.97
2024-02-15T05:06:49.266Z,3.63
2024-02-15T05:11:51.746Z,3.60
2024-02-15T05:16:53.586Z,3.25
2024-02-15T05:21:57.246Z,2.80
2024-02-15T05:26:59.222Z,4.35
2024-02-15T05:32:02.747Z,3.00
2024-02-15T05:37:04.781Z,3.80
2024-02-15T05:42:07.160Z,3.35
2024-02-15T05:47:09.075Z,4.30
2024-02-15T05:52:12.802Z,3.97
2024-02-15T05:57:14.674Z,4.05
2024-02-15T06:02:18.615Z,3.00
2024-02-15T06:07:20.551Z,2.20
2024-02-15T06:12:22.670Z,2.75
2024-02-15T06:17:25.870Z,2.70
2024-02-15T06:22:30.493Z,2.85
2024-02-15T06:27:33.866Z,1.83
2024-02-15T06:32:54.487Z,1.80
2024-02-15T06:38:15.601Z,2.10
2024-02-15T06:43:17.476Z,2.55
2024-02-15T06:48:19.384Z,2.38
2024-02-15T06:53:21.563Z,4.40
2024-02-15T06:58:23.846Z,5.72
2024-02-15T07:03:26.417Z,4.68
2024-02-15T07:08:28.832Z,3.17
2024-02-15T07:13:30.890Z,4.85
2024-02-15T07:18:35.419Z,6.63
2024-02-15T07:23:41.080Z,6.15
2024-02-15T07:28:43.026Z,6.05
2024-02-15T07:33:45.666Z,6.18
2024-02-15T07:38:49.574Z,8.20
2024-02-15T07:43:53.383Z,8.15
2024-02-15T07:48:58.675Z,7.13
2024-02-15T07:54:02.707Z,6.53
2024-02-15T07:59:05.437Z,7.60
2024-02-15T08:04:09.401Z,6.97
2024-02-15T08:09:15.846Z,8.00
2024-02-15T08:14:18.028Z,7.72
2024-02-15T08:19:20.416Z,12.95
2024-02-15T08:24:22.670Z,18.38
2024-02-15T08:29:24.663Z,15.88
2024-02-15T08:34:26.489Z,8.52
2024-02-15T08:39:28.248Z,4.32
2024-02-15T08:44:30.416Z,3.55
2024-02-15T08:49:33.083Z,4.10
2024-02-15T08:54:35.787Z,2.00
2024-02-15T08:59:38.893Z,1.63
2024-02-15T09:04:45.296Z,1.40
2024-02-15T09:09:49.211Z,0.85
2024-02-15T09:14:52.105Z,0.80
2024-02-15T09:19:56.266Z,0.93
2024-02-15T09:24:58.899Z,1.25
2024-02-15T09:30:05.598Z,1.30
2024-02-15T09:35:13.515Z,2.60
2024-02-15T09:40:17.696Z,0.90
2024-02-15T09:45:25.236Z,1.08
2024-02-15T09:50:32.968Z,2.20
2024-02-15T09:55:46.957Z,1.00
2024-02-15T10:00:53.616Z,1.23
2024-02-15T10:05:59.389Z,1.30
2024-02-15T10:11:10.962Z,4.45
2024-02-15T10:16:26.767Z,0.63
2024-02-15T10:21:35.205Z,0.63
2024-02-15T10:26:38.141Z,1.20
2024-02-15T10:31:43.075Z,0.50
2024-02-15T10:36:45.233Z,0.50
2024-02-15T10:41:52.145Z,0.90
2024-02-15T10:46:55.472Z,1.95
2024-02-15T10:52:23.292Z,0.57
2024-02-15T10:57:27.895Z,0.63
2024-02-15T11:02:39.319Z,0.80
2024-02-15T11:07:43.685Z,0.82
2024-02-15T11:12:49.364Z,1.00
2024-02-15T11:17:57.792Z,1.05
2024-02-15T11:23:01.613Z,1.00
2024-02-15T11:28:28.601Z,1.08
2024-02-15T11:33:39.426Z,1.02
2024-02-15T11:38:45.310Z,0.85
2024-02-15T11:44:02.508Z,1.25
2024-02-15T11:49:07.354Z,0.50
2024-02-15T11:54:13.642Z,0.85
2024-02-15T11:59:35.417Z,0.70
2024-02-15T12:04:59.119Z,0.95
2024-02-15T12:10:20.113Z,0.90
2024-02-15T12:15:40.763Z,0.82
2024-02-15T12:20:42.949Z,0.93
2024-02-15T12:25:45.036Z,1.15
2024-02-15T12:30:48.329Z,1.10
2024-02-15T12:35:54.874Z,1.50
2024-02-15T12:40:57.241Z,7.38
2024-02-15T12:45:59.101Z,0.70
2024-02-15T12:51:15.280Z,1.38
2024-02-15T12:56:24.881Z,0.80
2024-02-15T13:01:28.639Z,1.23
2024-02-15T13:06:31.262Z,0.95
2024-02-15T13:11:35.348Z,0.60
2024-02-15T13:16:39.730Z,0.75
2024-02-15T13:21:43.201Z,1.42
2024-02-15T13:26:46.096Z,0.60
2024-02-15T13:31:47.899Z,0.50
2024-02-15T13:36:51.488Z,1.00
2024-02-15T13:41:53.536Z,0.82
2024-02-15T13:46:56.768Z,0.80
2024-02-15T13:52:06.739Z,0.57
2024-02-15T13:57:08.740Z,0.80
2024-02-15T14:02:11.317Z,1.42
2024-02-15T14:07:13.376Z,0.52
2024-02-15T14:12:17.552Z,0.80
2024-02-15T14:17:21.024Z,1.35
2024-02-15T14:22:24.833Z,0.50
2024-02-15T14:27:27.442Z,0.70
2024-02-15T14:32:48.457Z,0.40
2024-02-15T14:37:50.299Z,0.50
2024-02-15T14:42:56.842Z,0.57
2024-02-15T14:48:00.668Z,0.80
2024-02-15T14:53:02.580Z,0.60
2024-02-15T14:58:05.155Z,1.67
2024-02-15T15:03:07.353Z,0.95
2024-02-15T15:08:28.416Z,0.73
2024-02-15T15:13:30.651Z,1.00
2024-02-15T15:18:35.581Z,1.20
2024-02-15T15:23:37.593Z,0.77
2024-02-15T15:28:40.157Z,0.65
2024-02-15T15:33:43.265Z,0.70
2024-02-15T15:38:45.429Z,0.85
2024-02-15T15:43:47.633Z,1.00
2024-02-15T15:48:49.719Z,0.70
2024-02-15T15:53:52.824Z,1.08
2024-02-15T15:58:55.239Z,0.60
2024-02-15T16:03:57.552Z,0.90
2024-02-15T16:08:59.759Z,0.65
2024-02-15T16:14:02.315Z,0.98
2024-02-15T16:19:05.830Z,0.80
2024-02-15T16:24:08.511Z,0.70
2024-02-15T16:29:11.148Z,1.40
2024-02-15T16:34:13.656Z,1.40
2024-02-15T16:39:18.696Z,1.08
2024-02-15T16:44:20.676Z,1.10
2024-02-15T16:49:22.892Z,1.17
2024-02-15T16:54:26.778Z,1.17
2024-02-15T16:59:33.381Z,1.30
2024-02-15T17:04:35.895Z,1.13
2024-02-15T17:09:38.710Z,1.75
2024-02-15T17:14:42.542Z,1.60
2024-02-15T17:19:44.499Z,1.45
2024-02-15T17:24:46.773Z,1.80
2024-02-15T17:29:48.833Z,2.20
2024-02-15T17:34:51.259Z,1.77
2024-02-15T17:39:53.095Z,3.25
2024-02-15T17:44:55.140Z,3.95
2024-02-15T17:49:58.439Z,3.22
2024-02-15T17:55:00.911Z,1.25
2024-02-15T18:00:03.954Z,3.38
2024-02-15T18:05:09.034Z,1.15
2024-02-15T18:10:16.556Z,1.42
2024-02-15T18:15:27.012Z,1.90
2024-02-15T18:20:29.293Z,41.33
2024-02-15T18:25:31.444Z,31.05
2024-02-15T18:30:35.525Z,28.00
2024-02-15T18:35:42.653Z,16.40
2024-02-15T18:40:45.243Z,11.70
2024-02-15T18:45:47.857Z,3.10
2024-02-15T18:50:52.592Z,12.70
2024-02-15T18:55:56.807Z,18.90
2024-02-15T19:00:59.414Z,36.78
2024-02-15T19:06:03.146Z,19.05
2024-02-15T19:11:05.784Z,16.65
2024-02-15T19:16:08.829Z,15.60
2024-02-15T19:21:11.006Z,14.10
2024-02-15T19:26:13.737Z,14.30
2024-02-15T19:31:15.612Z,8.85
2024-02-15T19:36:19.433Z,9.40
2024-02-15T19:41:23.377Z,13.25
2024-02-15T19:46:34.289Z,10.77
2024-02-15T19:51:36.901Z,9.70
2024-02-15T19:56:38.708Z,12.10
2024-02-15T20:01:45.517Z,14.38
2024-02-15T20:06:49.387Z,12.35
2024-02-15T20:11:51.650Z,9.00
2024-02-15T20:16:55.756Z,6.20
2024-02-15T20:21:57.681Z,5.75
2024-02-15T20:27:01.133Z,7.18
2024-02-15T20:32:03.055Z,6.03
2024-02-15T20:37:05.447Z,6.60
2024-02-15T20:42:07.550Z,6.80
2024-02-15T20:47:12.892Z,5.90
2024-02-15T20:52:15.278Z,6.15
2024-02-15T20:57:18.547Z,6.03
2024-02-15T21:02:21.744Z,4.45
2024-02-15T21:07:24.640Z,3.22
2024-02-15T21:12:27.450Z,3.35
2024-02-15T21:17:31.708Z,3.10
2024-02-15T21:22:34.672Z,3.42
2024-02-15T21:27:37.882Z,4.35
2024-02-15T21:32:40.303Z,3.72
2024-02-15T21:37:42.943Z,4.20
2024-02-15T21:42:45.191Z,3.00
2024-02-15T21:47:50.102Z,3.85
2024-02-15T21:52:52.640Z,2.80
2024-02-15T21:57:57.115Z,5.28
2024-02-15T22:03:02.569Z,7.90
2024-02-15T22:08:04.655Z,9.35
2024-02-15T22:13:06.421Z,7.40
2024-02-15T22:18:09.298Z,5.63
2024-02-15T22:23:11.889Z,4.03
2024-02-15T22:28:18.527Z,2.47
2024-02-15T22:33:24.953Z,1.88
2024-02-15T22:38:27.580Z,5.22
2024-02-15T22:43:29.937Z,14.40
2024-02-15T22:48:32.882Z,7.35
2024-02-15T22:53:44.101Z,7.38
2024-02-15T23:03:48.029Z,4.88
2024-02-15T23:08:49.893Z,4.07
2024-02-15T23:13:52.306Z,2.88
2024-02-15T23:18:54.663Z,2.88
2024-02-15T23:23:57.508Z,2.50
2024-02-15T23:29:00.373Z,1.80
2024-02-15T23:34:02.652Z,5.32
2024-02-15T23:39:23.609Z,2.45
2024-02-15T23:44:34.562Z,1.90
2024-02-15T23:49:37.301Z,2.08
2024-02-15T23:54:39.552Z,4.63
2024-02-15T23:59:41.962Z,4.13
